sensor_id;sensor_type;location;lat;lon;timestamp;P1;durP1;ratioP1;P2;durP2;ratioP2
5257;SDS011;2651;51.594;9.928;2023-05-07T00:00:13;26.85;;;16.27;;
5257;SDS011;2651;51.594;9.928;2023-05-07T00:01:16;22.45;;;16.13;;
5257;SDS011;2651;51.594;9.928;2023-05-07T00:02:20;20.52;;;14.23;;
5257;SDS011;2651;51.594;9.928;2023-05-07T00:03:22;27.60;;;17.05;;
5257;SDS011;2651;51.594;9.928;2023-05-07T00:04:24;22.67;;;15.40;;
5257;SDS011;2651;51.594;9.928;2023-05-07T00:05:26;29.55;;;15.93;;
5257;SDS011;2651;51.594;9.928;2023-05-07T00:06:27;24.88;;;15.05;;
5257;SDS011;2651;51.594;9.928;2023-05-07T00:07:30;23.27;;;15.40;;
5257;SDS011;2651;51.594;9.928;2023-05-07T00:08:32;24.23;;;16.73;;
5257;SDS011;2651;51.594;9.928;2023-05-07T00:09:33;23.50;;;15.50;;
5257;SDS011;2651;51.594;9.928;2023-05-07T00:10:35;21.77;;;14.70;;
5257;SDS011;2651;51.594;9.928;2023-05-07T00:11:37;21.70;;;15.00;;
5257;SDS011;2651;51.594;9.928;2023-05-07T00:12:40;24.38;;;16.00;;
5257;SDS011;2651;51.594;9.928;2023-05-07T00:13:42;22.40;;;16.70;;
5257;SDS011;2651;51.594;9.928;2023-05-07T00:14:43;22.55;;;16.50;;
5257;SDS011;2651;51.594;9.928;2023-05-07T00:15:45;23.20;;;15.60;;
5257;SDS011;2651;51.594;9.928;2023-05-07T00:16:47;23.15;;;16.30;;
5257;SDS011;2651;51.594;9.928;2023-05-07T00:17:48;22.98;;;16.67;;
5257;SDS011;2651;51.594;9.928;2023-05-07T00:18:50;24.33;;;16.20;;
5257;SDS011;2651;51.594;9.928;2023-05-07T00:19:53;26.42;;;16.63;;
5257;SDS011;2651;51.594;9.928;2023-05-07T00:20:55;22.88;;;15.00;;
5257;SDS011;2651;51.594;9.928;2023-05-07T00:21:57;22.53;;;16.23;;
5257;SDS011;2651;51.594;9.928;2023-05-07T00:22:59;23.98;;;15.77;;
5257;SDS011;2651;51.594;9.928;2023-05-07T00:24:00;21.77;;;14.75;;
5257;SDS011;2651;51.594;9.928;2023-05-07T00:25:02;23.33;;;15.50;;
5257;SDS011;2651;51.594;9.928;2023-05-07T00:26:04;23.00;;;15.45;;
5257;SDS011;2651;51.594;9.928;2023-05-07T00:27:06;24.60;;;16.55;;
5257;SDS011;2651;51.594;9.928;2023-05-07T00:28:07;26.23;;;15.73;;
5257;SDS011;2651;51.594;9.928;2023-05-07T00:29:09;23.23;;;16.17;;
5257;SDS011;2651;51.594;9.928;2023-05-07T00:30:11;22.73;;;15.82;;
5257;SDS011;2651;51.594;9.928;2023-05-07T00:31:13;21.58;;;14.95;;
5257;SDS011;2651;51.594;9.928;2023-05-07T00:32:15;23.92;;;16.10;;
5257;SDS011;2651;51.594;9.928;2023-05-07T00:33:16;22.25;;;15.73;;
5257;SDS011;2651;51.594;9.928;2023-05-07T00:34:18;24.27;;;16.60;;
5257;SDS011;2651;51.594;9.928;2023-05-07T00:35:20;22.25;;;15.50;;
5257;SDS011;2651;51.594;9.928;2023-05-07T00:36:21;25.37;;;16.40;;
5257;SDS011;2651;51.594;9.928;2023-05-07T00:37:23;27.08;;;17.15;;
5257;SDS011;2651;51.594;9.928;2023-05-07T00:38:25;26.02;;;17.40;;
5257;SDS011;2651;51.594;9.928;2023-05-07T00:39:26;26.35;;;17.10;;
5257;SDS011;2651;51.594;9.928;2023-05-07T00:40:28;27.20;;;17.85;;
5257;SDS011;2651;51.594;9.928;2023-05-07T00:41:29;26.15;;;16.95;;
5257;SDS011;2651;51.594;9.928;2023-05-07T00:42:34;31.20;;;18.42;;
5257;SDS011;2651;51.594;9.928;2023-05-07T00:43:35;26.65;;;16.33;;
5257;SDS011;2651;51.594;9.928;2023-05-07T00:44:37;32.08;;;18.55;;
5257;SDS011;2651;51.594;9.928;2023-05-07T00:45:39;24.23;;;16.65;;
5257;SDS011;2651;51.594;9.928;2023-05-07T00:46:41;25.17;;;16.83;;
5257;SDS011;2651;51.594;9.928;2023-05-07T00:47:42;25.02;;;17.63;;
5257;SDS011;2651;51.594;9.928;2023-05-07T00:48:44;26.35;;;17.05;;
5257;SDS011;2651;51.594;9.928;2023-05-07T00:49:46;27.52;;;16.92;;
5257;SDS011;2651;51.594;9.928;2023-05-07T00:50:48;29.30;;;17.35;;
5257;SDS011;2651;51.594;9.928;2023-05-07T00:51:49;28.10;;;16.37;;
5257;SDS011;2651;51.594;9.928;2023-05-07T00:52:51;22.88;;;16.00;;
5257;SDS011;2651;51.594;9.928;2023-05-07T00:53:53;27.30;;;16.88;;
5257;SDS011;2651;51.594;9.928;2023-05-07T00:54:55;24.60;;;17.38;;
5257;SDS011;2651;51.594;9.928;2023-05-07T00:55:57;27.00;;;17.83;;
5257;SDS011;2651;51.594;9.928;2023-05-07T00:56:58;25.73;;;17.25;;
5257;SDS011;2651;51.594;9.928;2023-05-07T00:58:01;24.30;;;17.27;;
5257;SDS011;2651;51.594;9.928;2023-05-07T00:59:03;23.42;;;16.80;;
5257;SDS011;2651;51.594;9.928;2023-05-07T01:00:05;23.67;;;17.02;;
5257;SDS011;2651;51.594;9.928;2023-05-07T01:01:09;29.15;;;17.70;;
5257;SDS011;2651;51.594;9.928;2023-05-07T01:02:10;33.08;;;19.70;;
5257;SDS011;2651;51.594;9.928;2023-05-07T01:03:12;29.40;;;17.17;;
5257;SDS011;2651;51.594;9.928;2023-05-07T01:04:14;36.63;;;19.17;;
5257;SDS011;2651;51.594;9.928;2023-05-07T01:05:17;31.52;;;18.65;;
5257;SDS011;2651;51.594;9.928;2023-05-07T01:06:20;24.45;;;16.00;;
5257;SDS011;2651;51.594;9.928;2023-05-07T01:07:24;30.15;;;19.33;;
5257;SDS011;2651;51.594;9.928;2023-05-07T01:08:25;28.45;;;16.38;;
5257;SDS011;2651;51.594;9.928;2023-05-07T01:09:30;32.40;;;19.90;;
5257;SDS011;2651;51.594;9.928;2023-05-07T01:10:32;24.58;;;17.23;;
5257;SDS011;2651;51.594;9.928;2023-05-07T01:11:34;31.17;;;19.02;;
5257;SDS011;2651;51.594;9.928;2023-05-07T01:12:36;31.50;;;19.23;;
5257;SDS011;2651;51.594;9.928;2023-05-07T01:13:39;28.00;;;18.52;;
5257;SDS011;2651;51.594;9.928;2023-05-07T01:14:42;28.25;;;17.48;;
5257;SDS011;2651;51.594;9.928;2023-05-07T01:15:44;26.50;;;17.65;;
5257;SDS011;2651;51.594;9.928;2023-05-07T01:16:47;29.48;;;17.55;;
5257;SDS011;2651;51.594;9.928;2023-05-07T01:17:49;28.27;;;17.92;;
5257;SDS011;2651;51.594;9.928;2023-05-07T01:18:51;28.67;;;17.45;;
5257;SDS011;2651;51.594;9.928;2023-05-07T01:19:52;27.17;;;17.98;;
5257;SDS011;2651;51.594;9.928;2023-05-07T01:20:54;32.47;;;18.52;;
5257;SDS011;2651;51.594;9.928;2023-05-07T01:22:01;29.45;;;18.23;;
5257;SDS011;2651;51.594;9.928;2023-05-07T01:23:05;26.73;;;16.95;;
5257;SDS011;2651;51.594;9.928;2023-05-07T01:24:08;27.88;;;18.67;;
5257;SDS011;2651;51.594;9.928;2023-05-07T01:25:10;28.52;;;18.30;;
5257;SDS011;2651;51.594;9.928;2023-05-07T01:26:12;34.03;;;16.80;;
5257;SDS011;2651;51.594;9.928;2023-05-07T01:27:13;29.10;;;17.35;;
5257;SDS011;2651;51.594;9.928;2023-05-07T01:28:15;30.15;;;18.60;;
5257;SDS011;2651;51.594;9.928;2023-05-07T01:29:17;29.33;;;17.50;;
5257;SDS011;2651;51.594;9.928;2023-05-07T01:30:19;28.30;;;18.05;;
5257;SDS011;2651;51.594;9.928;2023-05-07T01:31:22;32.03;;;18.20;;
5257;SDS011;2651;51.594;9.928;2023-05-07T01:32:40;29.73;;;17.23;;
5257;SDS011;2651;51.594;9.928;2023-05-07T01:33:52;27.65;;;16.85;;
5257;SDS011;2651;51.594;9.928;2023-05-07T01:34:54;27.92;;;17.55;;
5257;SDS011;2651;51.594;9.928;2023-05-07T01:35:58;29.73;;;17.77;;
5257;SDS011;2651;51.594;9.928;2023-05-07T01:37:03;24.10;;;16.88;;
5257;SDS011;2651;51.594;9.928;2023-05-07T01:38:05;24.45;;;16.25;;
5257;SDS011;2651;51.594;9.928;2023-05-07T01:39:07;23.33;;;16.15;;
5257;SDS011;2651;51.594;9.928;2023-05-07T01:40:10;27.23;;;17.63;;
5257;SDS011;2651;51.594;9.928;2023-05-07T01:41:13;25.88;;;16.58;;
5257;SDS011;2651;51.594;9.928;2023-05-07T01:42:14;29.30;;;18.10;;
5257;SDS011;2651;51.594;9.928;2023-05-07T01:43:16;25.25;;;17.20;;
5257;SDS011;2651;51.594;9.928;2023-05-07T01:44:18;29.52;;;18.63;;
5257;SDS011;2651;51.594;9.928;2023-05-07T01:45:20;27.15;;;16.90;;
5257;SDS011;2651;51.594;9.928;2023-05-07T01:46:22;27.48;;;16.73;;
5257;SDS011;2651;51.594;9.928;2023-05-07T01:47:26;27.48;;;17.88;;
5257;SDS011;2651;51.594;9.928;2023-05-07T01:48:27;21.23;;;15.85;;
5257;SDS011;2651;51.594;9.928;2023-05-07T01:49:30;39.15;;;17.75;;
5257;SDS011;2651;51.594;9.928;2023-05-07T01:50:31;24.10;;;17.23;;
5257;SDS011;2651;51.594;9.928;2023-05-07T01:51:34;28.23;;;17.02;;
5257;SDS011;2651;51.594;9.928;2023-05-07T01:52:37;26.70;;;16.48;;
5257;SDS011;2651;51.594;9.928;2023-05-07T01:53:39;29.48;;;17.38;;
5257;SDS011;2651;51.594;9.928;2023-05-07T01:54:41;25.33;;;16.48;;
5257;SDS011;2651;51.594;9.928;2023-05-07T01:55:43;25.40;;;16.77;;
5257;SDS011;2651;51.594;9.928;2023-05-07T01:56:46;33.25;;;17.50;;
5257;SDS011;2651;51.594;9.928;2023-05-07T01:57:49;23.73;;;16.23;;
5257;SDS011;2651;51.594;9.928;2023-05-07T01:58:51;27.85;;;17.15;;
5257;SDS011;2651;51.594;9.928;2023-05-07T01:59:53;30.92;;;17.15;;
5257;SDS011;2651;51.594;9.928;2023-05-07T02:00:54;25.83;;;16.77;;
5257;SDS011;2651;51.594;9.928;2023-05-07T02:01:56;28.38;;;16.50;;
5257;SDS011;2651;51.594;9.928;2023-05-07T02:02:58;25.27;;;16.42;;
5257;SDS011;2651;51.594;9.928;2023-05-07T02:04:00;24.52;;;16.58;;
5257;SDS011;2651;51.594;9.928;2023-05-07T02:05:01;29.55;;;16.80;;
5257;SDS011;2651;51.594;9.928;2023-05-07T02:06:03;27.85;;;16.25;;
5257;SDS011;2651;51.594;9.928;2023-05-07T02:07:05;26.90;;;15.93;;
5257;SDS011;2651;51.594;9.928;2023-05-07T02:08:06;27.58;;;17.75;;
5257;SDS011;2651;51.594;9.928;2023-05-07T02:09:08;24.80;;;16.63;;
5257;SDS011;2651;51.594;9.928;2023-05-07T02:10:10;24.88;;;16.50;;
5257;SDS011;2651;51.594;9.928;2023-05-07T02:11:12;24.35;;;14.88;;
5257;SDS011;2651;51.594;9.928;2023-05-07T02:12:13;24.60;;;15.38;;
5257;SDS011;2651;51.594;9.928;2023-05-07T02:13:15;28.52;;;17.10;;
5257;SDS011;2651;51.594;9.928;2023-05-07T02:14:17;26.00;;;16.33;;
5257;SDS011;2651;51.594;9.928;2023-05-07T02:15:18;31.77;;;16.27;;
5257;SDS011;2651;51.594;9.928;2023-05-07T02:16:20;24.40;;;16.27;;
5257;SDS011;2651;51.594;9.928;2023-05-07T02:17:22;29.70;;;16.98;;
5257;SDS011;2651;51.594;9.928;2023-05-07T02:18:24;25.23;;;16.60;;
5257;SDS011;2651;51.594;9.928;2023-05-07T02:19:26;26.35;;;15.60;;
5257;SDS011;2651;51.594;9.928;2023-05-07T02:20:28;29.00;;;17.83;;
5257;SDS011;2651;51.594;9.928;2023-05-07T02:21:29;29.35;;;16.95;;
5257;SDS011;2651;51.594;9.928;2023-05-07T02:22:31;25.17;;;16.15;;
5257;SDS011;2651;51.594;9.928;2023-05-07T02:23:33;28.20;;;16.45;;
5257;SDS011;2651;51.594;9.928;2023-05-07T02:24:34;23.45;;;15.63;;
5257;SDS011;2651;51.594;9.928;2023-05-07T02:25:36;22.90;;;14.70;;
5257;SDS011;2651;51.594;9.928;2023-05-07T02:26:38;26.00;;;14.80;;
5257;SDS011;2651;51.594;9.928;2023-05-07T02:27:40;25.20;;;16.15;;
5257;SDS011;2651;51.594;9.928;2023-05-07T02:28:42;25.23;;;15.77;;
5257;SDS011;2651;51.594;9.928;2023-05-07T02:29:43;25.70;;;16.23;;
5257;SDS011;2651;51.594;9.928;2023-05-07T02:30:45;30.88;;;15.07;;
5257;SDS011;2651;51.594;9.928;2023-05-07T02:31:46;22.60;;;15.65;;
5257;SDS011;2651;51.594;9.928;2023-05-07T02:32:51;23.75;;;16.17;;
5257;SDS011;2651;51.594;9.928;2023-05-07T02:33:53;26.25;;;16.08;;
5257;SDS011;2651;51.594;9.928;2023-05-07T02:34:55;22.85;;;15.93;;
5257;SDS011;2651;51.594;9.928;2023-05-07T02:35:56;26.10;;;15.88;;
5257;SDS011;2651;51.594;9.928;2023-05-07T02:37:05;28.90;;;16.58;;
5257;SDS011;2651;51.594;9.928;2023-05-07T02:38:07;27.52;;;16.70;;
5257;SDS011;2651;51.594;9.928;2023-05-07T02:39:14;23.33;;;15.63;;
5257;SDS011;2651;51.594;9.928;2023-05-07T02:40:16;24.77;;;15.80;;
5257;SDS011;2651;51.594;9.928;2023-05-07T02:41:18;26.92;;;16.48;;
5257;SDS011;2651;51.594;9.928;2023-05-07T02:42:19;25.30;;;16.27;;
5257;SDS011;2651;51.594;9.928;2023-05-07T02:43:21;27.40;;;15.55;;
5257;SDS011;2651;51.594;9.928;2023-05-07T02:44:22;22.95;;;15.27;;
5257;SDS011;2651;51.594;9.928;2023-05-07T02:45:24;23.65;;;16.33;;
5257;SDS011;2651;51.594;9.928;2023-05-07T02:46:26;25.38;;;16.80;;
5257;SDS011;2651;51.594;9.928;2023-05-07T02:47:28;23.67;;;14.77;;
5257;SDS011;2651;51.594;9.928;2023-05-07T02:48:29;24.92;;;15.98;;
5257;SDS011;2651;51.594;9.928;2023-05-07T02:49:31;28.98;;;16.05;;
5257;SDS011;2651;51.594;9.928;2023-05-07T02:50:33;23.90;;;15.93;;
5257;SDS011;2651;51.594;9.928;2023-05-07T02:51:34;22.80;;;14.82;;
5257;SDS011;2651;51.594;9.928;2023-05-07T02:52:36;24.77;;;15.00;;
5257;SDS011;2651;51.594;9.928;2023-05-07T02:53:37;22.85;;;15.00;;
5257;SDS011;2651;51.594;9.928;2023-05-07T02:54:39;23.73;;;14.43;;
5257;SDS011;2651;51.594;9.928;2023-05-07T02:55:41;26.20;;;15.80;;
5257;SDS011;2651;51.594;9.928;2023-05-07T02:56:42;26.98;;;15.75;;
5257;SDS011;2651;51.594;9.928;2023-05-07T02:57:44;25.15;;;15.68;;
5257;SDS011;2651;51.594;9.928;2023-05-07T02:58:45;21.48;;;14.82;;
5257;SDS011;2651;51.594;9.928;2023-05-07T02:59:47;23.75;;;15.35;;
5257;SDS011;2651;51.594;9.928;2023-05-07T03:00:49;24.65;;;14.95;;
5257;SDS011;2651;51.594;9.928;2023-05-07T03:01:50;22.48;;;14.70;;
5257;SDS011;2651;51.594;9.928;2023-05-07T03:02:52;22.63;;;14.80;;
5257;SDS011;2651;51.594;9.928;2023-05-07T03:03:54;23.98;;;15.18;;
5257;SDS011;2651;51.594;9.928;2023-05-07T03:04:55;26.30;;;14.75;;
5257;SDS011;2651;51.594;9.928;2023-05-07T03:05:57;19.30;;;13.10;;
5257;SDS011;2651;51.594;9.928;2023-05-07T03:06:58;20.17;;;14.07;;
5257;SDS011;2651;51.594;9.928;2023-05-07T03:08:00;24.15;;;15.30;;
5257;SDS011;2651;51.594;9.928;2023-05-07T03:09:02;20.35;;;14.13;;
5257;SDS011;2651;51.594;9.928;2023-05-07T03:10:04;22.90;;;14.25;;
5257;SDS011;2651;51.594;9.928;2023-05-07T03:11:06;22.70;;;15.80;;
5257;SDS011;2651;51.594;9.928;2023-05-07T03:12:07;24.40;;;15.18;;
5257;SDS011;2651;51.594;9.928;2023-05-07T03:13:09;23.38;;;15.20;;
5257;SDS011;2651;51.594;9.928;2023-05-07T03:14:11;23.48;;;15.10;;
5257;SDS011;2651;51.594;9.928;2023-05-07T03:15:12;31.92;;;14.73;;
5257;SDS011;2651;51.594;9.928;2023-05-07T03:16:14;26.58;;;16.10;;
5257;SDS011;2651;51.594;9.928;2023-05-07T03:17:16;25.42;;;15.30;;
5257;SDS011;2651;51.594;9.928;2023-05-07T03:18:18;22.30;;;15.50;;
5257;SDS011;2651;51.594;9.928;2023-05-07T03:19:19;21.58;;;14.50;;
5257;SDS011;2651;51.594;9.928;2023-05-07T03:20:21;29.42;;;16.13;;
5257;SDS011;2651;51.594;9.928;2023-05-07T03:21:23;24.23;;;15.50;;
5257;SDS011;2651;51.594;9.928;2023-05-07T03:22:24;22.90;;;15.27;;
5257;SDS011;2651;51.594;9.928;2023-05-07T03:23:26;24.52;;;16.20;;
5257;SDS011;2651;51.594;9.928;2023-05-07T03:24:28;24.25;;;14.95;;
5257;SDS011;2651;51.594;9.928;2023-05-07T03:25:29;22.70;;;15.15;;
5257;SDS011;2651;51.594;9.928;2023-05-07T03:26:31;23.52;;;15.40;;
5257;SDS011;2651;51.594;9.928;2023-05-07T03:27:33;25.73;;;14.98;;
5257;SDS011;2651;51.594;9.928;2023-05-07T03:28:35;20.63;;;14.07;;
5257;SDS011;2651;51.594;9.928;2023-05-07T03:29:36;22.38;;;15.82;;
5257;SDS011;2651;51.594;9.928;2023-05-07T03:30:38;25.65;;;16.63;;
5257;SDS011;2651;51.594;9.928;2023-05-07T03:31:39;25.15;;;15.63;;
5257;SDS011;2651;51.594;9.928;2023-05-07T03:32:41;21.77;;;14.98;;
5257;SDS011;2651;51.594;9.928;2023-05-07T03:33:50;23.98;;;14.98;;
5257;SDS011;2651;51.594;9.928;2023-05-07T03:34:53;24.73;;;15.93;;
5257;SDS011;2651;51.594;9.928;2023-05-07T03:35:54;25.50;;;15.10;;
5257;SDS011;2651;51.594;9.928;2023-05-07T03:36:56;22.50;;;14.48;;
5257;SDS011;2651;51.594;9.928;2023-05-07T03:37:57;24.52;;;15.23;;
5257;SDS011;2651;51.594;9.928;2023-05-07T03:38:59;25.60;;;14.75;;
5257;SDS011;2651;51.594;9.928;2023-05-07T03:40:01;22.10;;;15.20;;
5257;SDS011;2651;51.594;9.928;2023-05-07T03:41:03;23.52;;;14.65;;
5257;SDS011;2651;51.594;9.928;2023-05-07T03:42:04;24.27;;;15.65;;
5257;SDS011;2651;51.594;9.928;2023-05-07T03:43:06;26.40;;;16.00;;
5257;SDS011;2651;51.594;9.928;2023-05-07T03:44:08;25.85;;;16.15;;
5257;SDS011;2651;51.594;9.928;2023-05-07T03:45:09;23.35;;;15.32;;
5257;SDS011;2651;51.594;9.928;2023-05-07T03:46:11;24.40;;;16.40;;
5257;SDS011;2651;51.594;9.928;2023-05-07T03:47:13;22.40;;;15.15;;
5257;SDS011;2651;51.594;9.928;2023-05-07T03:48:14;26.13;;;15.50;;
5257;SDS011;2651;51.594;9.928;2023-05-07T03:49:16;23.73;;;14.85;;
5257;SDS011;2651;51.594;9.928;2023-05-07T03:50:17;21.85;;;14.70;;
5257;SDS011;2651;51.594;9.928;2023-05-07T03:51:20;19.58;;;13.70;;
5257;SDS011;2651;51.594;9.928;2023-05-07T03:52:22;18.88;;;12.60;;
5257;SDS011;2651;51.594;9.928;2023-05-07T03:53:26;24.10;;;15.40;;
5257;SDS011;2651;51.594;9.928;2023-05-07T03:54:28;21.55;;;14.70;;
5257;SDS011;2651;51.594;9.928;2023-05-07T03:55:30;25.83;;;15.48;;
5257;SDS011;2651;51.594;9.928;2023-05-07T03:56:32;23.75;;;14.85;;
5257;SDS011;2651;51.594;9.928;2023-05-07T03:57:34;25.98;;;15.73;;
5257;SDS011;2651;51.594;9.928;2023-05-07T03:58:35;21.95;;;13.23;;
5257;SDS011;2651;51.594;9.928;2023-05-07T03:59:37;25.80;;;15.68;;
5257;SDS011;2651;51.594;9.928;2023-05-07T04:00:38;30.00;;;15.95;;
5257;SDS011;2651;51.594;9.928;2023-05-07T04:01:41;21.73;;;14.32;;
5257;SDS011;2651;51.594;9.928;2023-05-07T04:02:43;21.35;;;14.55;;
5257;SDS011;2651;51.594;9.928;2023-05-07T04:03:45;27.10;;;15.65;;
5257;SDS011;2651;51.594;9.928;2023-05-07T04:04:48;22.52;;;14.85;;
5257;SDS011;2651;51.594;9.928;2023-05-07T04:05:50;25.13;;;14.88;;
5257;SDS011;2651;51.594;9.928;2023-05-07T04:06:52;23.52;;;14.43;;
5257;SDS011;2651;51.594;9.928;2023-05-07T04:07:54;23.75;;;14.50;;
5257;SDS011;2651;51.594;9.928;2023-05-07T04:08:55;22.50;;;15.10;;
5257;SDS011;2651;51.594;9.928;2023-05-07T04:09:57;23.27;;;14.73;;
5257;SDS011;2651;51.594;9.928;2023-05-07T04:10:59;23.95;;;14.50;;
5257;SDS011;2651;51.594;9.928;2023-05-07T04:12:01;24.02;;;14.80;;
5257;SDS011;2651;51.594;9.928;2023-05-07T04:13:03;20.27;;;14.27;;
5257;SDS011;2651;51.594;9.928;2023-05-07T04:14:05;22.20;;;14.30;;
5257;SDS011;2651;51.594;9.928;2023-05-07T04:15:07;23.27;;;14.38;;
5257;SDS011;2651;51.594;9.928;2023-05-07T04:16:09;25.20;;;14.50;;
5257;SDS011;2651;51.594;9.928;2023-05-07T04:17:11;22.67;;;14.40;;
5257;SDS011;2651;51.594;9.928;2023-05-07T04:18:12;24.45;;;15.52;;
5257;SDS011;2651;51.594;9.928;2023-05-07T04:19:14;22.00;;;14.05;;
5257;SDS011;2651;51.594;9.928;2023-05-07T04:20:16;28.60;;;15.00;;
5257;SDS011;2651;51.594;9.928;2023-05-07T04:21:19;21.17;;;13.93;;
5257;SDS011;2651;51.594;9.928;2023-05-07T04:22:21;19.08;;;13.50;;
5257;SDS011;2651;51.594;9.928;2023-05-07T04:23:23;22.38;;;13.75;;
5257;SDS011;2651;51.594;9.928;2023-05-07T04:24:25;21.58;;;14.20;;
5257;SDS011;2651;51.594;9.928;2023-05-07T04:25:26;21.27;;;13.25;;
5257;SDS011;2651;51.594;9.928;2023-05-07T04:26:28;20.08;;;13.05;;
5257;SDS011;2651;51.594;9.928;2023-05-07T04:27:30;19.20;;;13.60;;
5257;SDS011;2651;51.594;9.928;2023-05-07T04:28:32;19.65;;;12.60;;
5257;SDS011;2651;51.594;9.928;2023-05-07T04:29:33;16.08;;;11.77;;
5257;SDS011;2651;51.594;9.928;2023-05-07T04:30:35;21.15;;;12.85;;
5257;SDS011;2651;51.594;9.928;2023-05-07T04:31:37;19.73;;;12.70;;
5257;SDS011;2651;51.594;9.928;2023-05-07T04:32:38;19.60;;;13.60;;
5257;SDS011;2651;51.594;9.928;2023-05-07T04:33:40;19.23;;;11.82;;
5257;SDS011;2651;51.594;9.928;2023-05-07T04:34:42;18.25;;;12.07;;
5257;SDS011;2651;51.594;9.928;2023-05-07T04:35:43;18.73;;;12.10;;
5257;SDS011;2651;51.594;9.928;2023-05-07T04:36:45;20.15;;;12.88;;
5257;SDS011;2651;51.594;9.928;2023-05-07T04:37:47;15.00;;;11.50;;
5257;SDS011;2651;51.594;9.928;2023-05-07T04:38:49;17.27;;;12.48;;
5257;SDS011;2651;51.594;9.928;2023-05-07T04:39:50;21.50;;;13.25;;
5257;SDS011;2651;51.594;9.928;2023-05-07T04:40:52;18.58;;;12.00;;
5257;SDS011;2651;51.594;9.928;2023-05-07T04:41:54;18.60;;;11.85;;
5257;SDS011;2651;51.594;9.928;2023-05-07T04:42:55;20.48;;;12.57;;
5257;SDS011;2651;51.594;9.928;2023-05-07T04:43:57;19.77;;;12.68;;
5257;SDS011;2651;51.594;9.928;2023-05-07T04:45:01;20.08;;;12.40;;
5257;SDS011;2651;51.594;9.928;2023-05-07T04:46:03;19.38;;;11.70;;
5257;SDS011;2651;51.594;9.928;2023-05-07T04:47:04;20.25;;;12.35;;
5257;SDS011;2651;51.594;9.928;2023-05-07T04:48:06;18.65;;;12.00;;
5257;SDS011;2651;51.594;9.928;2023-05-07T04:49:09;18.90;;;12.25;;
5257;SDS011;2651;51.594;9.928;2023-05-07T04:50:11;20.15;;;12.80;;
5257;SDS011;2651;51.594;9.928;2023-05-07T04:51:13;19.40;;;11.85;;
5257;SDS011;2651;51.594;9.928;2023-05-07T04:52:15;17.70;;;12.05;;
5257;SDS011;2651;51.594;9.928;2023-05-07T04:53:17;20.33;;;12.40;;
5257;SDS011;2651;51.594;9.928;2023-05-07T04:54:19;18.83;;;12.40;;
5257;SDS011;2651;51.594;9.928;2023-05-07T04:55:21;18.40;;;12.07;;
5257;SDS011;2651;51.594;9.928;2023-05-07T04:56:22;27.85;;;12.30;;
5257;SDS011;2651;51.594;9.928;2023-05-07T04:57:24;18.58;;;12.02;;
5257;SDS011;2651;51.594;9.928;2023-05-07T04:58:26;19.17;;;11.95;;
5257;SDS011;2651;51.594;9.928;2023-05-07T04:59:28;19.95;;;13.02;;
5257;SDS011;2651;51.594;9.928;2023-05-07T05:00:30;21.35;;;12.75;;
5257;SDS011;2651;51.594;9.928;2023-05-07T05:01:31;18.75;;;12.25;;
5257;SDS011;2651;51.594;9.928;2023-05-07T05:02:33;19.98;;;12.32;;
5257;SDS011;2651;51.594;9.928;2023-05-07T05:03:35;18.50;;;12.20;;
5257;SDS011;2651;51.594;9.928;2023-05-07T05:04:37;18.70;;;12.27;;
5257;SDS011;2651;51.594;9.928;2023-05-07T05:05:38;15.57;;;11.30;;
5257;SDS011;2651;51.594;9.928;2023-05-07T05:06:40;21.02;;;13.10;;
5257;SDS011;2651;51.594;9.928;2023-05-07T05:07:42;19.00;;;11.95;;
5257;SDS011;2651;51.594;9.928;2023-05-07T05:08:44;17.65;;;12.25;;
5257;SDS011;2651;51.594;9.928;2023-05-07T05:09:45;15.45;;;10.57;;
5257;SDS011;2651;51.594;9.928;2023-05-07T05:10:47;19.10;;;12.48;;
5257;SDS011;2651;51.594;9.928;2023-05-07T05:11:50;15.88;;;10.43;;
5257;SDS011;2651;51.594;9.928;2023-05-07T05:12:52;17.52;;;10.85;;
5257;SDS011;2651;51.594;9.928;2023-05-07T05:13:54;18.42;;;11.93;;
5257;SDS011;2651;51.594;9.928;2023-05-07T05:14:55;23.10;;;11.52;;
5257;SDS011;2651;51.594;9.928;2023-05-07T05:15:57;23.42;;;12.13;;
5257;SDS011;2651;51.594;9.928;2023-05-07T05:16:59;21.15;;;11.18;;
5257;SDS011;2651;51.594;9.928;2023-05-07T05:18:01;21.80;;;12.00;;
5257;SDS011;2651;51.594;9.928;2023-05-07T05:19:03;17.20;;;11.73;;
5257;SDS011;2651;51.594;9.928;2023-05-07T05:20:04;19.60;;;12.02;;
5257;SDS011;2651;51.594;9.928;2023-05-07T05:21:07;17.05;;;11.70;;
5257;SDS011;2651;51.594;9.928;2023-05-07T05:22:09;17.70;;;10.88;;
5257;SDS011;2651;51.594;9.928;2023-05-07T05:23:10;19.10;;;11.90;;
5257;SDS011;2651;51.594;9.928;2023-05-07T05:24:12;20.30;;;12.30;;
5257;SDS011;2651;51.594;9.928;2023-05-07T05:25:14;18.73;;;11.77;;
5257;SDS011;2651;51.594;9.928;2023-05-07T05:26:16;18.08;;;10.93;;
5257;SDS011;2651;51.594;9.928;2023-05-07T05:27:17;18.42;;;11.15;;
5257;SDS011;2651;51.594;9.928;2023-05-07T05:28:19;18.88;;;11.32;;
5257;SDS011;2651;51.594;9.928;2023-05-07T05:29:21;21.45;;;12.98;;
5257;SDS011;2651;51.594;9.928;2023-05-07T05:30:22;18.48;;;11.40;;
5257;SDS011;2651;51.594;9.928;2023-05-07T05:31:24;17.80;;;11.55;;
5257;SDS011;2651;51.594;9.928;2023-05-07T05:32:26;20.10;;;11.63;;
5257;SDS011;2651;51.594;9.928;2023-05-07T05:33:27;20.60;;;11.52;;
5257;SDS011;2651;51.594;9.928;2023-05-07T05:34:29;18.80;;;11.25;;
5257;SDS011;2651;51.594;9.928;2023-05-07T05:35:31;17.92;;;11.95;;
5257;SDS011;2651;51.594;9.928;2023-05-07T05:36:32;17.90;;;11.52;;
5257;SDS011;2651;51.594;9.928;2023-05-07T05:37:34;15.88;;;11.18;;
5257;SDS011;2651;51.594;9.928;2023-05-07T05:38:36;18.65;;;11.15;;
5257;SDS011;2651;51.594;9.928;2023-05-07T05:39:37;18.90;;;11.25;;
5257;SDS011;2651;51.594;9.928;2023-05-07T05:40:39;20.35;;;11.40;;
5257;SDS011;2651;51.594;9.928;2023-05-07T05:41:41;16.60;;;10.93;;
5257;SDS011;2651;51.594;9.928;2023-05-07T05:42:42;17.73;;;11.30;;
5257;SDS011;2651;51.594;9.928;2023-05-07T05:43:44;21.80;;;11.50;;
5257;SDS011;2651;51.594;9.928;2023-05-07T05:44:46;19.45;;;11.80;;
5257;SDS011;2651;51.594;9.928;2023-05-07T05:45:47;19.13;;;11.38;;
5257;SDS011;2651;51.594;9.928;2023-05-07T05:46:49;19.33;;;12.23;;
5257;SDS011;2651;51.594;9.928;2023-05-07T05:47:51;16.67;;;10.68;;
5257;SDS011;2651;51.594;9.928;2023-05-07T05:48:52;18.83;;;11.88;;
5257;SDS011;2651;51.594;9.928;2023-05-07T05:49:54;19.95;;;11.40;;
5257;SDS011;2651;51.594;9.928;2023-05-07T05:50:56;19.33;;;11.40;;
5257;SDS011;2651;51.594;9.928;2023-05-07T05:51:57;16.65;;;10.90;;
5257;SDS011;2651;51.594;9.928;2023-05-07T05:52:59;17.52;;;12.27;;
5257;SDS011;2651;51.594;9.928;2023-05-07T05:54:00;17.05;;;11.00;;
5257;SDS011;2651;51.594;9.928;2023-05-07T05:55:02;19.80;;;11.30;;
5257;SDS011;2651;51.594;9.928;2023-05-07T05:56:04;19.00;;;11.27;;
5257;SDS011;2651;51.594;9.928;2023-05-07T05:57:06;18.67;;;10.98;;
5257;SDS011;2651;51.594;9.928;2023-05-07T05:58:08;15.77;;;10.60;;
5257;SDS011;2651;51.594;9.928;2023-05-07T05:59:10;18.40;;;11.13;;
5257;SDS011;2651;51.594;9.928;2023-05-07T06:00:12;23.08;;;11.70;;
5257;SDS011;2651;51.594;9.928;2023-05-07T06:01:14;18.48;;;11.02;;
5257;SDS011;2651;51.594;9.928;2023-05-07T06:02:16;17.27;;;11.05;;
5257;SDS011;2651;51.594;9.928;2023-05-07T06:03:18;14.05;;;10.18;;
5257;SDS011;2651;51.594;9.928;2023-05-07T06:04:19;19.38;;;11.95;;
5257;SDS011;2651;51.594;9.928;2023-05-07T06:05:21;17.85;;;11.55;;
5257;SDS011;2651;51.594;9.928;2023-05-07T06:06:23;17.55;;;11.15;;
5257;SDS011;2651;51.594;9.928;2023-05-07T06:07:25;17.23;;;10.57;;
5257;SDS011;2651;51.594;9.928;2023-05-07T06:08:29;18.40;;;11.02;;
5257;SDS011;2651;51.594;9.928;2023-05-07T06:09:31;17.65;;;10.77;;
5257;SDS011;2651;51.594;9.928;2023-05-07T06:10:32;17.35;;;11.20;;
5257;SDS011;2651;51.594;9.928;2023-05-07T06:11:34;14.55;;;10.52;;
5257;SDS011;2651;51.594;9.928;2023-05-07T06:12:36;14.52;;;10.88;;
5257;SDS011;2651;51.594;9.928;2023-05-07T06:13:37;16.67;;;11.20;;